Almena, Wisconsin
Current Conditions -  °F | °C
As of 8:15 AM on Sunday 21 Dec 2014 (Local Time) from KUBE Reporting Station
Haze Haze  
Wind Chill: 21°   Ceiling: 400
Heat Index: 30°   Visibility: 1.2mi
Dew Point: 30°   Wind: 12mph
Humidity: 100%   Direction: 150°SSE
Pressure: 29.92"   Gusts: NA
Location:  45.42°N, 92.03°W
Report Text: KUBE 211415Z AUTO 15010KT 1 1/4SM BR OVC004 M01/M01 A2992 RMK AO2
Loading
Personal Weather Stations






























Interactive Weather Map New forecast layout! Learn more

10-Day Weather Forecast

Advertisements
Track Severe Weather on mobile